sensor_id;sensor_type;location;lat;lon;timestamp;temperature;humidity
62581;DHT22;48640;48.770;9.148;2022-07-23T00:01:25;25.20;51.50
62581;DHT22;48640;48.770;9.148;2022-07-23T00:03:54;25.10;51.90
62581;DHT22;48640;48.770;9.148;2022-07-23T00:06:22;25.10;52.10
62581;DHT22;48640;48.770;9.148;2022-07-23T00:08:49;25.00;52.50
62581;DHT22;48640;48.770;9.148;2022-07-23T00:11:16;25.00;52.80
62581;DHT22;48640;48.770;9.148;2022-07-23T00:13:43;25.00;52.50
62581;DHT22;48640;48.770;9.148;2022-07-23T00:16:12;25.00;52.80
62581;DHT22;48640;48.770;9.148;2022-07-23T00:18:38;25.00;52.60
62581;DHT22;48640;48.770;9.148;2022-07-23T00:21:06;25.00;52.80
62581;DHT22;48640;48.770;9.148;2022-07-23T00:23:33;24.80;52.90
62581;DHT22;48640;48.770;9.148;2022-07-23T00:26:00;24.80;53.10
62581;DHT22;48640;48.770;9.148;2022-07-23T00:28:26;24.80;53.20
62581;DHT22;48640;48.770;9.148;2022-07-23T00:30:54;24.80;53.40
62581;DHT22;48640;48.770;9.148;2022-07-23T00:33:23;24.80;53.60
62581;DHT22;48640;48.770;9.148;2022-07-23T00:35:49;24.70;53.60
62581;DHT22;48640;48.770;9.148;2022-07-23T00:38:16;24.70;53.60
62581;DHT22;48640;48.770;9.148;2022-07-23T00:40:43;24.70;54.00
62581;DHT22;48640;48.770;9.148;2022-07-23T00:43:10;24.50;56.00
62581;DHT22;48640;48.770;9.148;2022-07-23T00:45:37;24.50;56.70
62581;DHT22;48640;48.770;9.148;2022-07-23T00:48:04;24.50;57.70
62581;DHT22;48640;48.770;9.148;2022-07-23T00:50:32;24.20;57.50
62581;DHT22;48640;48.770;9.148;2022-07-23T00:52:59;24.10;58.20
62581;DHT22;48640;48.770;9.148;2022-07-23T00:55:26;24.10;60.90
62581;DHT22;48640;48.770;9.148;2022-07-23T00:57:53;24.00;59.50
62581;DHT22;48640;48.770;9.148;2022-07-23T01:00:21;23.90;61.10
62581;DHT22;48640;48.770;9.148;2022-07-23T01:02:48;23.60;60.20
62581;DHT22;48640;48.770;9.148;2022-07-23T01:05:15;23.60;61.60
62581;DHT22;48640;48.770;9.148;2022-07-23T01:07:44;23.50;62.40
62581;DHT22;48640;48.770;9.148;2022-07-23T01:10:12;23.40;63.30
62581;DHT22;48640;48.770;9.148;2022-07-23T01:12:58;23.40;62.20
62581;DHT22;48640;48.770;9.148;2022-07-23T01:15:25;23.50;61.00
62581;DHT22;48640;48.770;9.148;2022-07-23T01:17:52;23.50;60.20
62581;DHT22;48640;48.770;9.148;2022-07-23T01:20:19;23.50;60.60
62581;DHT22;48640;48.770;9.148;2022-07-23T01:22:47;23.40;61.00
62581;DHT22;48640;48.770;9.148;2022-07-23T01:25:14;23.40;61.10
62581;DHT22;48640;48.770;9.148;2022-07-23T01:27:41;23.40;62.10
62581;DHT22;48640;48.770;9.148;2022-07-23T01:30:09;23.40;61.80
62581;DHT22;48640;48.770;9.148;2022-07-23T01:32:36;23.40;61.80
62581;DHT22;48640;48.770;9.148;2022-07-23T01:35:04;23.30;61.80
62581;DHT22;48640;48.770;9.148;2022-07-23T01:37:31;23.30;62.10
62581;DHT22;48640;48.770;9.148;2022-07-23T01:39:59;23.30;62.10
62581;DHT22;48640;48.770;9.148;2022-07-23T01:42:26;23.30;62.00
62581;DHT22;48640;48.770;9.148;2022-07-23T01:44:53;23.30;62.40
62581;DHT22;48640;48.770;9.148;2022-07-23T01:47:20;23.30;62.20
62581;DHT22;48640;48.770;9.148;2022-07-23T01:49:47;23.40;61.90
62581;DHT22;48640;48.770;9.148;2022-07-23T01:52:14;23.30;62.60
62581;DHT22;48640;48.770;9.148;2022-07-23T01:54:41;23.20;62.70
62581;DHT22;48640;48.770;9.148;2022-07-23T01:57:10;23.20;63.00
62581;DHT22;48640;48.770;9.148;2022-07-23T01:59:36;23.10;61.60
62581;DHT22;48640;48.770;9.148;2022-07-23T02:02:04;23.10;62.40
62581;DHT22;48640;48.770;9.148;2022-07-23T02:04:31;23.00;64.30
62581;DHT22;48640;48.770;9.148;2022-07-23T02:07:00;23.00;64.20
62581;DHT22;48640;48.770;9.148;2022-07-23T02:09:27;22.90;64.40
62581;DHT22;48640;48.770;9.148;2022-07-23T02:11:54;22.90;64.60
62581;DHT22;48640;48.770;9.148;2022-07-23T02:14:22;22.80;64.90
62581;DHT22;48640;48.770;9.148;2022-07-23T02:16:49;22.90;64.80
62581;DHT22;48640;48.770;9.148;2022-07-23T02:19:16;22.90;64.90
62581;DHT22;48640;48.770;9.148;2022-07-23T02:21:43;22.80;64.80
62581;DHT22;48640;48.770;9.148;2022-07-23T02:24:12;22.80;64.50
62581;DHT22;48640;48.770;9.148;2022-07-23T02:26:39;22.80;65.10
62581;DHT22;48640;48.770;9.148;2022-07-23T02:29:06;22.90;64.10
62581;DHT22;48640;48.770;9.148;2022-07-23T02:31:34;22.90;64.10
62581;DHT22;48640;48.770;9.148;2022-07-23T02:34:02;22.80;64.40
62581;DHT22;48640;48.770;9.148;2022-07-23T02:36:29;22.80;65.20
62581;DHT22;48640;48.770;9.148;2022-07-23T02:38:56;22.80;65.40
62581;DHT22;48640;48.770;9.148;2022-07-23T02:41:23;22.70;65.00
62581;DHT22;48640;48.770;9.148;2022-07-23T02:43:50;22.70;64.80
62581;DHT22;48640;48.770;9.148;2022-07-23T02:46:16;22.70;65.10
62581;DHT22;48640;48.770;9.148;2022-07-23T02:48:45;22.70;65.30
62581;DHT22;48640;48.770;9.148;2022-07-23T02:51:12;22.70;65.30
62581;DHT22;48640;48.770;9.148;2022-07-23T02:53:38;22.70;65.20
62581;DHT22;48640;48.770;9.148;2022-07-23T02:56:05;22.70;65.50
62581;DHT22;48640;48.770;9.148;2022-07-23T02:58:32;22.70;66.00
62581;DHT22;48640;48.770;9.148;2022-07-23T03:00:59;22.60;66.40
62581;DHT22;48640;48.770;9.148;2022-07-23T03:03:26;22.70;67.00
62581;DHT22;48640;48.770;9.148;2022-07-23T03:05:54;22.60;66.80
62581;DHT22;48640;48.770;9.148;2022-07-23T03:08:24;22.60;66.50
62581;DHT22;48640;48.770;9.148;2022-07-23T03:10:50;22.60;66.50
62581;DHT22;48640;48.770;9.148;2022-07-23T03:13:17;22.80;66.70
62581;DHT22;48640;48.770;9.148;2022-07-23T03:15:44;22.60;66.80
62581;DHT22;48640;48.770;9.148;2022-07-23T03:18:11;22.70;67.20
62581;DHT22;48640;48.770;9.148;2022-07-23T03:20:38;22.60;66.80
62581;DHT22;48640;48.770;9.148;2022-07-23T03:23:06;22.70;66.50
62581;DHT22;48640;48.770;9.148;2022-07-23T03:25:33;22.60;66.60
62581;DHT22;48640;48.770;9.148;2022-07-23T03:28:00;22.60;66.30
62581;DHT22;48640;48.770;9.148;2022-07-23T03:30:26;22.50;66.70
62581;DHT22;48640;48.770;9.148;2022-07-23T03:32:53;22.50;67.00
62581;DHT22;48640;48.770;9.148;2022-07-23T03:35:20;22.50;66.70
62581;DHT22;48640;48.770;9.148;2022-07-23T03:37:47;22.60;66.40
62581;DHT22;48640;48.770;9.148;2022-07-23T03:40:15;22.60;66.50
62581;DHT22;48640;48.770;9.148;2022-07-23T03:42:42;22.60;67.30
62581;DHT22;48640;48.770;9.148;2022-07-23T03:45:12;22.70;67.10
62581;DHT22;48640;48.770;9.148;2022-07-23T03:47:39;22.60;67.00
62581;DHT22;48640;48.770;9.148;2022-07-23T03:50:06;22.60;66.60
62581;DHT22;48640;48.770;9.148;2022-07-23T03:52:33;22.50;66.40
62581;DHT22;48640;48.770;9.148;2022-07-23T03:55:00;22.60;67.00
62581;DHT22;48640;48.770;9.148;2022-07-23T03:57:29;22.50;66.00
62581;DHT22;48640;48.770;9.148;2022-07-23T03:59:55;22.40;66.70
62581;DHT22;48640;48.770;9.148;2022-07-23T04:02:22;22.50;68.10
62581;DHT22;48640;48.770;9.148;2022-07-23T04:04:49;22.40;67.00
62581;DHT22;48640;48.770;9.148;2022-07-23T04:07:16;22.30;67.30
62581;DHT22;48640;48.770;9.148;2022-07-23T04:09:44;22.50;66.30
62581;DHT22;48640;48.770;9.148;2022-07-23T04:12:11;22.60;66.10
62581;DHT22;48640;48.770;9.148;2022-07-23T04:14:39;22.60;65.70
62581;DHT22;48640;48.770;9.148;2022-07-23T04:17:06;22.60;65.40
62581;DHT22;48640;48.770;9.148;2022-07-23T04:19:32;22.60;65.70
62581;DHT22;48640;48.770;9.148;2022-07-23T04:22:01;22.60;65.80
62581;DHT22;48640;48.770;9.148;2022-07-23T04:24:28;22.70;66.20
62581;DHT22;48640;48.770;9.148;2022-07-23T04:26:54;22.70;66.30
62581;DHT22;48640;48.770;9.148;2022-07-23T04:29:21;22.60;66.20
62581;DHT22;48640;48.770;9.148;2022-07-23T04:31:49;22.60;66.30
62581;DHT22;48640;48.770;9.148;2022-07-23T04:34:16;22.60;66.70
62581;DHT22;48640;48.770;9.148;2022-07-23T04:36:43;22.60;66.80
62581;DHT22;48640;48.770;9.148;2022-07-23T04:39:11;22.70;67.00
62581;DHT22;48640;48.770;9.148;2022-07-23T04:41:37;22.60;67.00
62581;DHT22;48640;48.770;9.148;2022-07-23T04:44:04;22.50;66.90
62581;DHT22;48640;48.770;9.148;2022-07-23T04:46:31;22.50;66.80
62581;DHT22;48640;48.770;9.148;2022-07-23T04:48:59;22.50;66.80
62581;DHT22;48640;48.770;9.148;2022-07-23T04:51:26;22.40;66.90
62581;DHT22;48640;48.770;9.148;2022-07-23T04:53:54;22.50;66.70
62581;DHT22;48640;48.770;9.148;2022-07-23T04:56:21;22.50;67.00
62581;DHT22;48640;48.770;9.148;2022-07-23T04:58:48;22.60;66.80
62581;DHT22;48640;48.770;9.148;2022-07-23T05:01:15;22.70;66.30
62581;DHT22;48640;48.770;9.148;2022-07-23T05:03:42;22.80;66.10
62581;DHT22;48640;48.770;9.148;2022-07-23T05:06:10;22.90;66.60
62581;DHT22;48640;48.770;9.148;2022-07-23T05:08:37;23.10;65.20
62581;DHT22;48640;48.770;9.148;2022-07-23T05:11:04;23.30;64.10
62581;DHT22;48640;48.770;9.148;2022-07-23T05:13:31;23.50;62.80
62581;DHT22;48640;48.770;9.148;2022-07-23T05:15:58;23.50;62.50
62581;DHT22;48640;48.770;9.148;2022-07-23T05:18:25;23.50;62.50
62581;DHT22;48640;48.770;9.148;2022-07-23T05:20:52;23.30;62.80
62581;DHT22;48640;48.770;9.148;2022-07-23T05:23:20;23.30;63.40
62581;DHT22;48640;48.770;9.148;2022-07-23T05:25:47;23.40;63.00
62581;DHT22;48640;48.770;9.148;2022-07-23T05:28:13;23.50;62.80
62581;DHT22;48640;48.770;9.148;2022-07-23T05:30:42;23.60;62.70
62581;DHT22;48640;48.770;9.148;2022-07-23T05:33:09;24.10;61.70
62581;DHT22;48640;48.770;9.148;2022-07-23T05:35:35;24.70;59.10
62581;DHT22;48640;48.770;9.148;2022-07-23T05:38:02;25.10;57.40
62581;DHT22;48640;48.770;9.148;2022-07-23T05:40:31;25.10;57.30
62581;DHT22;48640;48.770;9.148;2022-07-23T05:42:58;24.70;57.60
62581;DHT22;48640;48.770;9.148;2022-07-23T05:45:25;24.50;58.20
62581;DHT22;48640;48.770;9.148;2022-07-23T05:47:52;24.20;59.40
62581;DHT22;48640;48.770;9.148;2022-07-23T05:50:19;24.10;59.20
62581;DHT22;48640;48.770;9.148;2022-07-23T05:52:45;24.10;60.50
62581;DHT22;48640;48.770;9.148;2022-07-23T05:55:13;24.00;60.80
62581;DHT22;48640;48.770;9.148;2022-07-23T05:57:41;24.00;60.40
62581;DHT22;48640;48.770;9.148;2022-07-23T06:00:10;23.90;60.40
62581;DHT22;48640;48.770;9.148;2022-07-23T06:02:38;24.00;60.80
62581;DHT22;48640;48.770;9.148;2022-07-23T06:05:06;24.00;61.40
62581;DHT22;48640;48.770;9.148;2022-07-23T06:07:34;24.00;61.20
62581;DHT22;48640;48.770;9.148;2022-07-23T06:10:00;24.10;61.30
62581;DHT22;48640;48.770;9.148;2022-07-23T06:12:27;23.90;60.80
62581;DHT22;48640;48.770;9.148;2022-07-23T06:14:56;23.90;62.00
62581;DHT22;48640;48.770;9.148;2022-07-23T06:17:22;23.80;61.80
62581;DHT22;48640;48.770;9.148;2022-07-23T06:19:49;23.80;62.20
62581;DHT22;48640;48.770;9.148;2022-07-23T06:22:16;24.00;61.00
62581;DHT22;48640;48.770;9.148;2022-07-23T06:24:43;24.40;60.30
62581;DHT22;48640;48.770;9.148;2022-07-23T06:27:10;24.60;59.00
62581;DHT22;48640;48.770;9.148;2022-07-23T06:29:37;24.80;59.40
62581;DHT22;48640;48.770;9.148;2022-07-23T06:32:07;25.10;57.80
62581;DHT22;48640;48.770;9.148;2022-07-23T06:34:34;26.20;55.40
62581;DHT22;48640;48.770;9.148;2022-07-23T06:37:01;26.30;54.00
62581;DHT22;48640;48.770;9.148;2022-07-23T06:39:28;26.30;54.10
62581;DHT22;48640;48.770;9.148;2022-07-23T06:41:55;25.90;54.20
62581;DHT22;48640;48.770;9.148;2022-07-23T06:44:22;25.80;55.20
62581;DHT22;48640;48.770;9.148;2022-07-23T06:46:49;25.80;55.60
62581;DHT22;48640;48.770;9.148;2022-07-23T06:49:17;26.00;54.90
62581;DHT22;48640;48.770;9.148;2022-07-23T06:51:44;26.40;54.80
62581;DHT22;48640;48.770;9.148;2022-07-23T06:54:11;26.10;53.70
62581;DHT22;48640;48.770;9.148;2022-07-23T06:56:38;25.90;54.30
62581;DHT22;48640;48.770;9.148;2022-07-23T06:59:05;25.50;54.30
62581;DHT22;48640;48.770;9.148;2022-07-23T07:01:32;25.20;55.20
62581;DHT22;48640;48.770;9.148;2022-07-23T07:03:58;25.10;56.00
62581;DHT22;48640;48.770;9.148;2022-07-23T07:06:27;25.00;56.40
62581;DHT22;48640;48.770;9.148;2022-07-23T07:08:53;25.00;56.10
62581;DHT22;48640;48.770;9.148;2022-07-23T07:11:21;24.90;55.60
62581;DHT22;48640;48.770;9.148;2022-07-23T07:13:49;24.90;55.80
62581;DHT22;48640;48.770;9.148;2022-07-23T07:16:16;24.90;56.10
62581;DHT22;48640;48.770;9.148;2022-07-23T07:18:43;24.80;55.80
62581;DHT22;48640;48.770;9.148;2022-07-23T07:21:10;24.60;56.30
62581;DHT22;48640;48.770;9.148;2022-07-23T07:23:38;24.50;56.60
62581;DHT22;48640;48.770;9.148;2022-07-23T07:26:05;24.40;57.10
62581;DHT22;48640;48.770;9.148;2022-07-23T07:28:32;24.40;58.20
62581;DHT22;48640;48.770;9.148;2022-07-23T07:30:59;24.10;58.80
62581;DHT22;48640;48.770;9.148;2022-07-23T07:33:25;23.60;63.30
62581;DHT22;48640;48.770;9.148;2022-07-23T07:35:52;23.60;69.30
62581;DHT22;48640;48.770;9.148;2022-07-23T07:38:19;23.40;63.60
62581;DHT22;48640;48.770;9.148;2022-07-23T07:40:47;23.40;66.00
62581;DHT22;48640;48.770;9.148;2022-07-23T07:43:14;24.70;64.90
62581;DHT22;48640;48.770;9.148;2022-07-23T07:45:41;26.20;59.20
62581;DHT22;48640;48.770;9.148;2022-07-23T07:48:08;27.60;55.50
62581;DHT22;48640;48.770;9.148;2022-07-23T07:50:38;28.30;54.30
62581;DHT22;48640;48.770;9.148;2022-07-23T07:53:07;31.80;48.20
62581;DHT22;48640;48.770;9.148;2022-07-23T07:55:34;31.70;43.20
62581;DHT22;48640;48.770;9.148;2022-07-23T07:58:02;30.00;45.60
62581;DHT22;48640;48.770;9.148;2022-07-23T08:00:29;30.20;45.70
62581;DHT22;48640;48.770;9.148;2022-07-23T08:02:59;30.30;45.30
62581;DHT22;48640;48.770;9.148;2022-07-23T08:05:29;31.00;44.80
62581;DHT22;48640;48.770;9.148;2022-07-23T08:08:02;31.40;43.80
62581;DHT22;48640;48.770;9.148;2022-07-23T08:10:29;31.10;42.50
62581;DHT22;48640;48.770;9.148;2022-07-23T08:12:57;31.90;42.70
62581;DHT22;48640;48.770;9.148;2022-07-23T08:15:33;34.20;39.40
62581;DHT22;48640;48.770;9.148;2022-07-23T08:18:09;34.10;37.00
62581;DHT22;48640;48.770;9.148;2022-07-23T08:20:36;32.30;39.00
62581;DHT22;48640;48.770;9.148;2022-07-23T08:23:07;30.50;42.40
62581;DHT22;48640;48.770;9.148;2022-07-23T08:25:40;29.00;43.90
62581;DHT22;48640;48.770;9.148;2022-07-23T08:28:12;27.80;46.80
62581;DHT22;48640;48.770;9.148;2022-07-23T08:30:46;27.10;50.10
62581;DHT22;48640;48.770;9.148;2022-07-23T08:33:16;26.20;51.30
62581;DHT22;48640;48.770;9.148;2022-07-23T08:35:46;25.50;53.80
62581;DHT22;48640;48.770;9.148;2022-07-23T08:38:14;25.30;55.70
62581;DHT22;48640;48.770;9.148;2022-07-23T08:40:44;26.90;53.60
62581;DHT22;48640;48.770;9.148;2022-07-23T08:43:12;27.10;51.30
62581;DHT22;48640;48.770;9.148;2022-07-23T08:45:41;29.80;48.30
62581;DHT22;48640;48.770;9.148;2022-07-23T08:48:18;31.10;43.80
62581;DHT22;48640;48.770;9.148;2022-07-23T08:50:57;34.80;37.60
62581;DHT22;48640;48.770;9.148;2022-07-23T08:53:26;37.70;32.40
62581;DHT22;48640;48.770;9.148;2022-07-23T08:55:55;39.90;29.50
62581;DHT22;48640;48.770;9.148;2022-07-23T08:58:23;41.10;27.40
62581;DHT22;48640;48.770;9.148;2022-07-23T09:00:51;42.00;26.40
62581;DHT22;48640;48.770;9.148;2022-07-23T09:03:20;42.60;24.80
62581;DHT22;48640;48.770;9.148;2022-07-23T09:05:48;42.60;24.40
62581;DHT22;48640;48.770;9.148;2022-07-23T09:08:17;43.70;23.70
62581;DHT22;48640;48.770;9.148;2022-07-23T09:10:47;44.20;22.60
62581;DHT22;48640;48.770;9.148;2022-07-23T09:13:25;44.70;21.70
62581;DHT22;48640;48.770;9.148;2022-07-23T09:15:53;38.60;26.00
62581;DHT22;48640;48.770;9.148;2022-07-23T09:18:30;38.30;27.40
62581;DHT22;48640;48.770;9.148;2022-07-23T09:21:09;40.60;25.80
62581;DHT22;48640;48.770;9.148;2022-07-23T09:23:41;42.30;24.60
62581;DHT22;48640;48.770;9.148;2022-07-23T09:26:32;40.20;24.10
62581;DHT22;48640;48.770;9.148;2022-07-23T09:29:03;39.50;26.40
62581;DHT22;48640;48.770;9.148;2022-07-23T09:31:35;35.90;28.10
62581;DHT22;48640;48.770;9.148;2022-07-23T09:34:11;33.50;31.30
62581;DHT22;48640;48.770;9.148;2022-07-23T09:36:39;32.10;34.80
62581;DHT22;48640;48.770;9.148;2022-07-23T09:39:07;32.50;35.70
62581;DHT22;48640;48.770;9.148;2022-07-23T09:41:36;36.10;32.20
62581;DHT22;48640;48.770;9.148;2022-07-23T09:44:08;39.50;27.50
62581;DHT22;48640;48.770;9.148;2022-07-23T09:46:36;41.40;25.00
62581;DHT22;48640;48.770;9.148;2022-07-23T09:49:16;42.30;23.80
62581;DHT22;48640;48.770;9.148;2022-07-23T09:51:48;42.90;23.60
62581;DHT22;48640;48.770;9.148;2022-07-23T09:54:29;43.80;22.70
62581;DHT22;48640;48.770;9.148;2022-07-23T09:57:00;42.50;22.80
62581;DHT22;48640;48.770;9.148;2022-07-23T09:59:29;42.30;23.00
62581;DHT22;48640;48.770;9.148;2022-07-23T10:01:58;42.90;24.10
62581;DHT22;48640;48.770;9.148;2022-07-23T10:04:28;43.40;22.80
62581;DHT22;48640;48.770;9.148;2022-07-23T10:06:56;43.80;22.50
62581;DHT22;48640;48.770;9.148;2022-07-23T10:09:27;43.60;22.60
62581;DHT22;48640;48.770;9.148;2022-07-23T10:11:56;43.00;22.60
62581;DHT22;48640;48.770;9.148;2022-07-23T10:14:46;42.70;23.30
62581;DHT22;48640;48.770;9.148;2022-07-23T10:17:14;42.30;23.30
62581;DHT22;48640;48.770;9.148;2022-07-23T10:19:43;39.70;24.60
62581;DHT22;48640;48.770;9.148;2022-07-23T10:22:11;40.60;24.40
62581;DHT22;48640;48.770;9.148;2022-07-23T10:24:49;41.00;24.30
62581;DHT22;48640;48.770;9.148;2022-07-23T10:30:30;40.00;25.00
62581;DHT22;48640;48.770;9.148;2022-07-23T10:33:12;38.00;27.10
62581;DHT22;48640;48.770;9.148;2022-07-23T10:35:48;36.90;28.60
62581;DHT22;48640;48.770;9.148;2022-07-23T10:38:22;36.70;29.20
62581;DHT22;48640;48.770;9.148;2022-07-23T10:40:54;36.00;29.40
62581;DHT22;48640;48.770;9.148;2022-07-23T10:43:21;36.00;29.40
62581;DHT22;48640;48.770;9.148;2022-07-23T10:45:49;36.50;28.70
62581;DHT22;48640;48.770;9.148;2022-07-23T10:48:17;36.30;28.50
62581;DHT22;48640;48.770;9.148;2022-07-23T10:51:07;36.50;28.10
62581;DHT22;48640;48.770;9.148;2022-07-23T10:53:54;36.50;28.40
62581;DHT22;48640;48.770;9.148;2022-07-23T10:56:49;36.20;29.30
62581;DHT22;48640;48.770;9.148;2022-07-23T10:59:16;36.30;28.50
62581;DHT22;48640;48.770;9.148;2022-07-23T11:01:43;36.10;28.60
62581;DHT22;48640;48.770;9.148;2022-07-23T11:04:10;36.10;29.10
62581;DHT22;48640;48.770;9.148;2022-07-23T11:07:08;36.00;29.20
62581;DHT22;48640;48.770;9.148;2022-07-23T11:09:41;35.40;29.80
62581;DHT22;48640;48.770;9.148;2022-07-23T11:12:33;35.30;30.20
62581;DHT22;48640;48.770;9.148;2022-07-23T11:15:04;35.30;30.10
62581;DHT22;48640;48.770;9.148;2022-07-23T11:17:33;34.90;30.70
62581;DHT22;48640;48.770;9.148;2022-07-23T11:20:16;35.10;32.40
62581;DHT22;48640;48.770;9.148;2022-07-23T11:22:49;34.70;30.90
62581;DHT22;48640;48.770;9.148;2022-07-23T11:25:32;34.70;31.00
62581;DHT22;48640;48.770;9.148;2022-07-23T11:28:14;34.20;31.40
62581;DHT22;48640;48.770;9.148;2022-07-23T11:30:44;33.50;32.70
62581;DHT22;48640;48.770;9.148;2022-07-23T11:33:19;32.70;35.00
62581;DHT22;48640;48.770;9.148;2022-07-23T11:35:49;32.60;34.60
62581;DHT22;48640;48.770;9.148;2022-07-23T11:38:18;32.60;35.00
62581;DHT22;48640;48.770;9.148;2022-07-23T11:40:47;32.10;35.90
62581;DHT22;48640;48.770;9.148;2022-07-23T11:43:15;31.90;37.10
62581;DHT22;48640;48.770;9.148;2022-07-23T11:45:43;32.30;37.20
62581;DHT22;48640;48.770;9.148;2022-07-23T11:48:18;32.60;36.30
62581;DHT22;48640;48.770;9.148;2022-07-23T11:50:45;33.30;35.00
62581;DHT22;48640;48.770;9.148;2022-07-23T11:53:12;33.70;33.80
62581;DHT22;48640;48.770;9.148;2022-07-23T11:55:40;34.10;33.60
62581;DHT22;48640;48.770;9.148;2022-07-23T11:58:07;34.00;33.70
62581;DHT22;48640;48.770;9.148;2022-07-23T12:00:34;33.80;34.00
62581;DHT22;48640;48.770;9.148;2022-07-23T12:03:03;33.70;33.30
62581;DHT22;48640;48.770;9.148;2022-07-23T12:05:33;33.90;33.30
62581;DHT22;48640;48.770;9.148;2022-07-23T12:08:02;33.80;33.80
62581;DHT22;48640;48.770;9.148;2022-07-23T12:10:34;33.40;34.00
62581;DHT22;48640;48.770;9.148;2022-07-23T12:13:04;32.70;35.10
62581;DHT22;48640;48.770;9.148;2022-07-23T12:15:34;32.50;36.10
62581;DHT22;48640;48.770;9.148;2022-07-23T12:18:03;32.50;36.10
62581;DHT22;48640;48.770;9.148;2022-07-23T12:20:33;31.70;38.40
62581;DHT22;48640;48.770;9.148;2022-07-23T12:23:01;31.50;38.40
62581;DHT22;48640;48.770;9.148;2022-07-23T12:25:30;31.40;38.30
62581;DHT22;48640;48.770;9.148;2022-07-23T12:28:04;31.30;38.00
62581;DHT22;48640;48.770;9.148;2022-07-23T12:30:33;31.40;37.00
62581;DHT22;48640;48.770;9.148;2022-07-23T12:33:01;31.80;37.00
62581;DHT22;48640;48.770;9.148;2022-07-23T12:35:36;31.90;36.30
62581;DHT22;48640;48.770;9.148;2022-07-23T12:38:05;31.80;37.20
62581;DHT22;48640;48.770;9.148;2022-07-23T12:40:34;31.80;36.80
62581;DHT22;48640;48.770;9.148;2022-07-23T12:43:05;31.60;37.10
62581;DHT22;48640;48.770;9.148;2022-07-23T12:45:46;31.30;37.30
62581;DHT22;48640;48.770;9.148;2022-07-23T12:48:22;30.90;38.70
62581;DHT22;48640;48.770;9.148;2022-07-23T12:50:56;30.90;38.80
62581;DHT22;48640;48.770;9.148;2022-07-23T12:53:25;30.70;38.70
62581;DHT22;48640;48.770;9.148;2022-07-23T12:56:02;30.70;38.80
62581;DHT22;48640;48.770;9.148;2022-07-23T12:58:45;30.60;39.00
62581;DHT22;48640;48.770;9.148;2022-07-23T13:01:23;30.60;39.90
62581;DHT22;48640;48.770;9.148;2022-07-23T13:03:56;30.50;40.50
62581;DHT22;48640;48.770;9.148;2022-07-23T13:06:24;30.80;40.20
62581;DHT22;48640;48.770;9.148;2022-07-23T13:08:51;30.60;39.80
62581;DHT22;48640;48.770;9.148;2022-07-23T13:11:18;30.50;39.80
62581;DHT22;48640;48.770;9.148;2022-07-23T13:13:46;30.60;39.70
62581;DHT22;48640;48.770;9.148;2022-07-23T13:16:13;31.00;38.20
62581;DHT22;48640;48.770;9.148;2022-07-23T13:18:40;31.20;36.60
62581;DHT22;48640;48.770;9.148;2022-07-23T13:21:07;31.20;36.50
62581;DHT22;48640;48.770;9.148;2022-07-23T13:23:34;31.00;37.60
62581;DHT22;48640;48.770;9.148;2022-07-23T13:26:01;30.60;38.20
62581;DHT22;48640;48.770;9.148;2022-07-23T13:28:28;30.60;38.60
62581;DHT22;48640;48.770;9.148;2022-07-23T13:30:57;30.70;37.90
62581;DHT22;48640;48.770;9.148;2022-07-23T13:33:24;30.90;38.10
62581;DHT22;48640;48.770;9.148;2022-07-23T13:35:52;30.90;37.30
62581;DHT22;48640;48.770;9.148;2022-07-23T13:38:20;30.70;37.30
62581;DHT22;48640;48.770;9.148;2022-07-23T13:40:49;30.40;37.90
62581;DHT22;48640;48.770;9.148;2022-07-23T13:43:18;30.30;38.00
62581;DHT22;48640;48.770;9.148;2022-07-23T13:45:46;30.40;37.80
62581;DHT22;48640;48.770;9.148;2022-07-23T13:48:14;30.30;37.70
62581;DHT22;48640;48.770;9.148;2022-07-23T13:50:42;30.20;38.30
62581;DHT22;48640;48.770;9.148;2022-07-23T13:53:11;30.30;38.40
62581;DHT22;48640;48.770;9.148;2022-07-23T13:55:39;30.30;38.50
62581;DHT22;48640;48.770;9.148;2022-07-23T13:58:07;30.60;39.30
62581;DHT22;48640;48.770;9.148;2022-07-23T14:00:36;30.60;38.40
62581;DHT22;48640;48.770;9.148;2022-07-23T14:03:03;30.80;37.50
62581;DHT22;48640;48.770;9.148;2022-07-23T14:05:32;30.70;37.40
62581;DHT22;48640;48.770;9.148;2022-07-23T14:07:59;30.50;37.30
62581;DHT22;48640;48.770;9.148;2022-07-23T14:10:26;30.40;37.80
62581;DHT22;48640;48.770;9.148;2022-07-23T14:12:53;30.50;38.20
62581;DHT22;48640;48.770;9.148;2022-07-23T14:15:22;30.60;38.20
62581;DHT22;48640;48.770;9.148;2022-07-23T14:17:49;30.70;37.90
62581;DHT22;48640;48.770;9.148;2022-07-23T14:20:16;30.80;37.60
62581;DHT22;48640;48.770;9.148;2022-07-23T14:22:44;31.00;37.60
62581;DHT22;48640;48.770;9.148;2022-07-23T14:25:11;30.90;36.90
62581;DHT22;48640;48.770;9.148;2022-07-23T14:27:38;30.90;36.20
62581;DHT22;48640;48.770;9.148;2022-07-23T14:30:07;30.90;36.20
62581;DHT22;48640;48.770;9.148;2022-07-23T14:32:34;30.90;37.10
62581;DHT22;48640;48.770;9.148;2022-07-23T14:35:02;30.70;37.30
62581;DHT22;48640;48.770;9.148;2022-07-23T14:37:29;30.60;36.40
62581;DHT22;48640;48.770;9.148;2022-07-23T14:39:57;30.40;36.50
62581;DHT22;48640;48.770;9.148;2022-07-23T14:42:24;30.40;36.50
62581;DHT22;48640;48.770;9.148;2022-07-23T14:44:51;30.40;36.80
62581;DHT22;48640;48.770;9.148;2022-07-23T14:47:18;30.20;36.50
62581;DHT22;48640;48.770;9.148;2022-07-23T14:49:45;30.30;37.40
62581;DHT22;48640;48.770;9.148;2022-07-23T14:52:12;30.30;37.00
62581;DHT22;48640;48.770;9.148;2022-07-23T14:54:39;30.20;36.80
62581;DHT22;48640;48.770;9.148;2022-07-23T14:57:07;29.90;37.30
62581;DHT22;48640;48.770;9.148;2022-07-23T14:59:35;30.00;37.40
62581;DHT22;48640;48.770;9.148;2022-07-23T15:02:02;29.90;36.70
62581;DHT22;48640;48.770;9.148;2022-07-23T15:04:28;30.00;37.20
62581;DHT22;48640;48.770;9.148;2022-07-23T15:06:55;30.10;37.10
62581;DHT22;48640;48.770;9.148;2022-07-23T15:09:22;30.10;37.80
62581;DHT22;48640;48.770;9.148;2022-07-23T15:11:49;30.00;37.70
62581;DHT22;48640;48.770;9.148;2022-07-23T15:14:17;29.90;37.70
62581;DHT22;48640;48.770;9.148;2022-07-23T15:16:44;30.00;38.50
62581;DHT22;48640;48.770;9.148;2022-07-23T15:19:11;29.70;38.10
62581;DHT22;48640;48.770;9.148;2022-07-23T15:21:38;29.80;38.70
62581;DHT22;48640;48.770;9.148;2022-07-23T15:24:05;29.80;39.00
62581;DHT22;48640;48.770;9.148;2022-07-23T15:26:32;29.80;39.40
62581;DHT22;48640;48.770;9.148;2022-07-23T15:28:58;29.70;39.30
62581;DHT22;48640;48.770;9.148;2022-07-23T15:31:29;29.40;39.70
62581;DHT22;48640;48.770;9.148;2022-07-23T15:33:56;29.40;40.40
62581;DHT22;48640;48.770;9.148;2022-07-23T15:36:22;29.40;40.90
62581;DHT22;48640;48.770;9.148;2022-07-23T15:38:49;29.30;40.80
62581;DHT22;48640;48.770;9.148;2022-07-23T15:41:16;29.30;41.10
62581;DHT22;48640;48.770;9.148;2022-07-23T15:43:43;29.30;40.80